أنطاليا, Turkey

04:29 AM EEST on أعس×س 24, 2016 (GMT +0300)
Antalya | | Change Station

Elev 174 ft 36.90 °N, 30.80 °E | Updated 39 minutes ago

Clear
صافية
77 °F
Feels Like 77 °F
N
4
ريح متغير ريح from شمال

هذا اليوم
High -- | Low -- °F
--% Chance of Precip.
Yesterday
High -- | Low -- °F
Precip. -- في
الضغط 29.77 في
وضوح الرؤية -9999.0 أميال
سحابات
نقطة الندى 72 °F
الرطوبة 83%
Rainfall 0.00 في
عمق الثلج Not available.
6:21 AM 7:36 PM
الأحدب الأخير, 62% visible
METAR LTAI 240050Z 01003KT 350V050 CAVOK 25/22 Q1008 NOSIG RMK RWY18C 01002KT RWY36R 01004KT RWY18L 02003KT
الضغط 29.77 في
وضوح الرؤية -9999.0 أميال
سحابات
نقطة الندى 72 °F
الرطوبة 83%
Rainfall 0.00 في
عمق الثلج Not available.
6:21 AM 7:36 PM
الأحدب الأخير, 62% visible
METAR LTAI 240050Z 01003KT 350V050 CAVOK 25/22 Q1008 NOSIG RMK RWY18C 01002KT RWY36R 01004KT RWY18L 02003KT

10-Day Weather Forecast

×

Almanac

علم الفلك

Aug. 24, 2016 Rise Set
Actual Time
Civil Twilight
Nautical Twilight
Astronomical Twilight
قمر
Length Of Visible Light
طول الیوم
Tomorrow will be .
, % of the Moon is Illuminated

Today's Extremes

Country Highs Country Lows

Community

WunderPhotos

Upload Photos

1,934,517 photos uploaded!

WunderBlog® & News

Nearby

جودة الهواء

  جودة الهواء AQ Index Pollutant
Not available.

عمق الثلج

Station Depth Elevation

Earthquake Activity

City Distance Mag. Time & Date
Minimum magnitude displayed is 2.5.

Coastal Water Temperatures

مكان درجات الحرارة

Stations

Nearby Weather Stations

Station Location الحرارة رياح باردة نقطة الندى الرطوبة ريح Precip. Elev تحديث Type